Washington, District of Columbia
Traffic Map
Current Weather Conditions
Washington, District of Columbia
Broken Clouds
Broken Clouds
24°
Feels Like: 24°
Wind Chill: 24° Ceiling: 7500
Heat Index: 24° Visibility: 10mi
Dew Point: 11° Wind: 7mph
Humidity: 43% Direction: 120° (ESE)
Pressure: 30.26in Gusts: 0mph
Raw Report DataKDCA 192152Z 12006KT 10SM FEW050 BKN075 24/11 A3026 RMK AO2 SLP246 T02390106
Traffic Incident Summary
Active as of:
Severity:
Category:
InformationThere was an issue retrieving the traffic information for this location. Please try a different location or try again shortly.
Advertisements
Track Severe Weather on mobile